Stanley, United Kingdom
Current Conditions -  °F | °C
As of 1:50 PM on Wednesday 28 Jan 2015 (Local Time) from EGNT Reporting Station
Snow Showers Snow Showers  
Wind Chill: 26°   Ceiling: Unl
Heat Index: 37°   Visibility: 6mi
Dew Point: 34°   Wind: 26mph
Humidity: 87%   Direction: 270°W
Pressure: 29.21"   Gusts: 38mph
Location:  54.87°N, 1.7°W
Report Text: EGNT 281350Z 27023G33KT 9999 -SHRASN FEW008 SCT015 03/01 Q0989
Loading
Personal Weather Stations






























Interactive Weather Map New forecast layout! Learn more

10-Day Weather Forecast

Advertisements
Track Severe Weather on mobile